Time;durP1;ratioP1;P1;durP2;ratioP2;P2;SDS_P1;SDS_P2;PMS_P1;PMS_P2;Temp;Humidity;BMP_temperature;BMP_pressure;BME280_temperature;BME280_humidity;BME280_pressure;Samples;Min_cycle;Max_cycle;Signal;HPM_P1;HPM_P2
2022/07/18 00:00:24;;;;;;;414.48;390.60;;;16.60;99.90;;;;;;5078086;28;20051;-61
2022/07/18 00:02:50;;;;;;;354.45;334.85;;;16.60;99.90;;;;;;5095899;28;20058;-61
2022/07/18 00:05:16;;;;;;;454.92;427.40;;;16.50;99.90;;;;;;5094757;28;20098;-61
2022/07/18 00:07:42;;;;;;;394.20;372.20;;;16.40;99.90;;;;;;5093565;28;20056;-61
2022/07/18 00:10:08;;;;;;;383.55;359.83;;;16.40;99.90;;;;;;5074968;28;20048;-61
2022/07/18 00:12:34;;;;;;;575.88;537.17;;;16.30;99.90;;;;;;5076425;28;20136;-61
2022/07/18 00:14:59;;;;;;;408.25;381.70;;;16.20;99.90;;;;;;5095982;28;20115;-61
2022/07/18 00:17:25;;;;;;;507.63;473.90;;;16.10;99.90;;;;;;5077077;28;20464;-61
2022/07/18 00:19:52;;;;;;;448.45;420.10;;;;;;;;;;5094981;28;20044;-61
2022/07/18 00:22:18;;;;;;;497.77;464.73;;;16.10;99.90;;;;;;5086575;28;20044;-61
2022/07/18 00:24:43;;;;;;;501.70;469.25;;;16.00;99.90;;;;;;5060340;28;20074;-61
2022/07/18 00:27:09;;;;;;;448.05;419.77;;;16.00;99.90;;;;;;5094606;28;20106;-61
2022/07/18 00:29:36;;;;;;;378.92;356.17;;;16.00;99.90;;;;;;5068231;28;20397;-61
2022/07/18 00:32:04;;;;;;;322.88;304.55;;;16.00;99.90;;;;;;5072612;28;20117;-61
2022/07/18 00:34:30;;;;;;;415.25;389.90;;;15.90;99.90;;;;;;5095494;28;20119;-61
2022/07/18 00:36:56;;;;;;;365.95;345.63;;;15.90;99.90;;;;;;5094647;28;20127;-61
2022/07/18 00:39:22;;;;;;;415.42;391.23;;;15.80;99.90;;;;;;5076365;28;20041;-61
2022/07/18 00:41:48;;;;;;;380.02;357.55;;;15.80;99.90;;;;;;5074912;28;20162;-61
2022/07/18 00:44:17;;;;;;;408.20;383.63;;;15.90;99.90;;;;;;5075187;28;20090;-61
2022/07/18 00:46:43;;;;;;;293.67;276.38;;;15.80;99.90;;;;;;5056001;28;20098;-61
2022/07/18 00:49:09;;;;;;;367.20;344.88;;;15.80;99.90;;;;;;5074314;28;20045;-61
2022/07/18 00:51:37;;;;;;;297.50;281.25;;;15.80;99.90;;;;;;5056796;28;20044;-61
2022/07/18 00:54:04;;;;;;;272.55;259.00;;;15.80;99.90;;;;;;5073861;28;20101;-61
2022/07/18 00:56:30;;;;;;;256.88;243.32;;;15.80;99.90;;;;;;5074928;28;20541;-61
2022/07/18 00:58:56;;;;;;;285.40;269.42;;;15.90;99.90;;;;;;5074351;28;20170;-61
2022/07/18 01:04:06;;;;;;;221.77;210.25;;;15.90;99.90;;;;;;5074663;28;20091;-61
2022/07/18 01:06:32;;;;;;;303.42;287.27;;;15.80;99.90;;;;;;5074380;28;20518;-61
2022/07/18 01:08:58;;;;;;;216.02;204.85;;;15.80;99.90;;;;;;5073578;28;20045;-61
2022/07/18 01:11:25;;;;;;;188.77;179.07;;;15.80;99.90;;;;;;5074306;28;20041;-61
2022/07/18 01:13:50;;;;;;;297.40;280.67;;;15.80;99.90;;;;;;5074389;28;20491;-61
2022/07/18 01:16:17;;;;;;;197.55;187.57;;;15.80;99.90;;;;;;5054940;28;20179;-61
2022/07/18 01:18:50;;;;;;;236.60;223.68;;;15.70;99.90;;;;;;5074137;28;20609;-61
2022/07/18 01:21:16;;;;;;;380.98;359.95;;;15.60;99.90;;;;;;5073663;28;20409;-61
2022/07/18 01:23:44;;;;;;;338.13;318.50;;;15.50;99.90;;;;;;5073577;28;20044;-61
2022/07/18 01:26:12;;;;;;;336.25;318.27;;;15.40;99.90;;;;;;5074084;28;20091;-61
2022/07/18 01:28:39;;;;;;;248.85;236.13;;;15.30;99.90;;;;;;5073245;28;20048;-60
2022/07/18 01:31:05;;;;;;;372.95;350.52;;;15.30;99.90;;;;;;5073466;28;20048;-61
2022/07/18 01:33:32;;;;;;;198.10;188.32;;;15.20;99.90;;;;;;5073850;28;20036;-61
2022/07/18 01:36:00;;;;;;;262.42;248.18;;;15.10;99.90;;;;;;5073336;28;20087;-61
2022/07/18 01:38:28;;;;;;;325.27;307.15;;;15.00;99.90;;;;;;5065194;28;20440;-61
2022/07/18 01:40:55;;;;;;;275.30;260.90;;;15.00;99.90;;;;;;5071663;28;20140;-60
2022/07/18 01:43:21;;;;;;;279.38;265.02;;;15.10;99.90;;;;;;5073000;28;20040;-61
2022/07/18 01:45:47;;;;;;;276.60;262.27;;;15.20;99.90;;;;;;5073466;28;20044;-61
2022/07/18 01:48:13;;;;;;;256.05;243.25;;;15.30;99.90;;;;;;5060603;28;20506;-61
2022/07/18 01:50:39;;;;;;;298.25;281.42;;;15.30;99.90;;;;;;5067782;28;20047;-61
2022/07/18 01:53:05;;;;;;;272.10;257.58;;;15.40;99.90;;;;;;5073283;28;20560;-61
2022/07/18 01:55:31;;;;;;;319.25;301.88;;;15.50;99.90;;;;;;5073765;28;20127;-61
2022/07/18 01:57:56;;;;;;;354.65;333.30;;;15.50;99.90;;;;;;5072729;28;20040;-60
2022/07/18 02:00:22;;;;;;;289.75;275.05;;;15.50;99.90;;;;;;5062565;28;20047;-61
2022/07/18 02:02:48;;;;;;;250.35;237.82;;;15.40;99.90;;;;;;5035601;28;20048;-61
2022/07/18 02:05:14;;;;;;;252.07;238.23;;;15.40;99.90;;;;;;5052799;28;20045;-61
2022/07/18 02:07:42;;;;;;;277.90;262.88;;;15.20;99.90;;;;;;5053802;28;20083;-60
2022/07/18 02:10:14;;;;;;;365.65;343.77;;;15.20;99.90;;;;;;5035469;28;20116;-61
2022/07/18 02:12:40;;;;;;;312.80;293.83;;;15.10;99.90;;;;;;5052329;28;20136;-61
2022/07/18 02:15:08;;;;;;;282.65;266.73;;;15.00;99.90;;;;;;5053087;28;20056;-60
2022/07/18 02:17:34;;;;;;;267.63;253.65;;;15.00;99.90;;;;;;5063303;28;20076;-61
2022/07/18 02:20:00;;;;;;;229.63;217.30;;;15.00;99.90;;;;;;5055270;28;20087;-61
2022/07/18 02:22:26;;;;;;;270.73;256.80;;;14.90;99.90;;;;;;5072803;28;20072;-60
2022/07/18 02:24:52;;;;;;;323.63;304.92;;;14.90;99.90;;;;;;5072250;28;20052;-61
2022/07/18 02:27:19;;;;;;;271.48;256.85;;;14.90;99.90;;;;;;5053978;28;20080;-61
2022/07/18 02:29:45;;;;;;;320.27;302.83;;;14.90;99.90;;;;;;5052718;28;20049;-61
2022/07/18 02:32:11;;;;;;;343.42;323.75;;;14.90;99.90;;;;;;5052300;28;20040;-61
2022/07/18 02:34:37;;;;;;;258.85;244.75;;;15.00;99.90;;;;;;5058645;28;20053;-61
2022/07/18 02:37:04;;;;;;;309.45;291.88;;;15.10;99.90;;;;;;5072597;28;20124;-61
2022/07/18 02:39:30;;;;;;;323.27;303.20;;;15.20;99.90;;;;;;5054098;28;20052;-60
2022/07/18 02:41:56;;;;;;;372.33;348.88;;;15.30;99.90;;;;;;5059261;28;20088;-61
2022/07/18 02:44:23;;;;;;;350.67;330.00;;;15.30;99.90;;;;;;5085428;28;20404;-61
2022/07/18 02:46:49;;;;;;;376.50;353.17;;;15.40;99.90;;;;;;5091970;28;20048;-61
2022/07/18 02:49:27;;;;;;;380.85;359.42;;;15.50;99.90;;;;;;5076593;28;20036;-61
2022/07/18 02:52:02;;;;;;;299.05;283.30;;;15.60;99.90;;;;;;5091841;28;20055;-61
2022/07/18 02:54:28;;;;;;;283.52;267.60;;;15.60;99.90;;;;;;5092000;28;20123;-60
2022/07/18 02:56:54;;;;;;;238.82;227.15;;;15.70;99.90;;;;;;5074769;28;20048;-61
2022/07/18 02:59:20;;;;;;;251.63;238.90;;;15.70;99.90;;;;;;5092370;28;20083;-61
2022/07/18 03:01:48;;;;;;;417.05;393.30;;;15.70;99.90;;;;;;5091636;28;20081;-61
2022/07/18 03:04:15;;;;;;;223.73;212.90;;;15.70;99.90;;;;;;5093020;28;20048;-61
2022/07/18 03:06:40;;;;;;;242.10;229.98;;;15.70;99.90;;;;;;5091864;28;20048;-61
2022/07/18 03:09:06;;;;;;;236.82;224.88;;;15.70;99.90;;;;;;5079145;28;20557;-60
2022/07/18 03:11:32;;;;;;;334.95;316.60;;;15.70;99.90;;;;;;5056005;28;20134;-61
2022/07/18 03:13:58;;;;;;;281.77;267.27;;;15.80;99.90;;;;;;5056734;28;20140;-61
2022/07/18 03:16:24;;;;;;;249.52;236.50;;;15.80;99.90;;;;;;5072638;28;20048;-60
2022/07/18 03:18:50;;;;;;;292.80;277.73;;;15.80;99.90;;;;;;5077583;28;20051;-61
2022/07/18 03:21:15;;;;;;;251.80;238.63;;;15.90;99.90;;;;;;5073507;28;20039;-61
2022/07/18 03:23:41;;;;;;;263.75;250.10;;;15.80;99.90;;;;;;5092770;28;20048;-61
2022/07/18 03:26:07;;;;;;;308.55;291.15;;;15.90;99.90;;;;;;5077317;28;20082;-60
2022/07/18 03:28:33;;;;;;;318.13;300.00;;;15.90;99.90;;;;;;5083574;28;20123;-61
2022/07/18 03:30:58;;;;;;;319.63;302.88;;;15.90;99.90;;;;;;5092560;28;20036;-61
2022/07/18 03:33:25;;;;;;;278.50;263.80;;;15.80;99.90;;;;;;5074727;28;20059;-61
2022/07/18 03:35:51;;;;;;;291.53;275.57;;;15.80;99.90;;;;;;5091093;28;20593;-61
2022/07/18 03:38:17;;;;;;;343.00;323.50;;;15.80;99.90;;;;;;5083042;28;20048;-60
2022/07/18 03:40:42;;;;;;;321.80;304.38;;;15.80;99.90;;;;;;5072222;28;20124;-61
2022/07/18 03:43:08;;;;;;;341.08;320.95;;;15.80;99.90;;;;;;5071387;28;20436;-60
2022/07/18 03:45:34;;;;;;;369.67;347.98;;;15.90;99.90;;;;;;5075657;28;20083;-61
2022/07/18 03:48:00;;;;;;;433.42;407.17;;;15.90;99.90;;;;;;5082287;28;20062;-60
2022/07/18 03:50:27;;;;;;;348.95;328.30;;;15.90;99.90;;;;;;5082212;28;20110;-60
2022/07/18 03:52:53;;;;;;;332.52;312.65;;;15.90;99.90;;;;;;5073886;28;20060;-61
2022/07/18 03:55:19;;;;;;;444.85;416.23;;;16.00;99.90;;;;;;5073635;28;20516;-61
2022/07/18 03:57:46;;;;;;;388.75;366.65;;;16.00;99.90;;;;;;5091569;28;20044;-61
2022/07/18 04:00:12;;;;;;;403.00;379.55;;;15.90;99.90;;;;;;5074012;28;20060;-61
2022/07/18 04:02:39;;;;;;;303.17;286.08;;;16.00;99.90;;;;;;5091628;28;20110;-61
2022/07/18 04:05:06;;;;;;;301.60;285.52;;;15.90;99.90;;;;;;5091166;28;20087;-61
2022/07/18 04:07:31;;;;;;;259.73;246.43;;;15.90;99.90;;;;;;5091782;28;20040;-61
2022/07/18 04:09:57;;;;;;;343.15;322.90;;;15.90;99.90;;;;;;5053363;28;20060;-60
2022/07/18 04:12:23;;;;;;;287.80;272.55;;;15.90;99.90;;;;;;5073034;28;20394;-60
2022/07/18 04:14:48;;;;;;;342.95;324.10;;;15.80;99.90;;;;;;5075063;28;20048;-60
2022/07/18 04:17:14;;;;;;;372.77;350.33;;;15.90;99.90;;;;;;5074932;28;20044;-61
2022/07/18 04:19:40;;;;;;;439.75;412.40;;;15.90;99.90;;;;;;5057576;28;20045;-61
2022/07/18 04:22:06;;;;;;;357.15;336.45;;;15.90;99.90;;;;;;5091381;28;20047;-60
2022/07/18 04:24:31;;;;;;;396.10;370.90;;;15.90;99.90;;;;;;5081450;28;20460;-61
2022/07/18 04:26:57;;;;;;;488.33;457.10;;;16.00;99.90;;;;;;5075263;28;20064;-61
2022/07/18 04:29:23;;;;;;;379.58;355.50;;;16.00;99.90;;;;;;5077966;28;20045;-61
2022/07/18 04:31:49;;;;;;;398.83;373.05;;;16.10;99.90;;;;;;5074500;28;20053;-61
2022/07/18 04:34:14;;;;;;;461.40;431.42;;;16.10;99.90;;;;;;5075315;28;20083;-61
2022/07/18 04:36:40;;;;;;;477.80;444.02;;;16.20;99.90;;;;;;5074883;28;20098;-60
2022/07/18 04:39:06;;;;;;;395.38;371.23;;;16.20;99.90;;;;;;5080744;28;20052;-61
2022/07/18 04:41:32;;;;;;;377.58;355.45;;;16.30;99.90;;;;;;5087466;28;20060;-61
2022/07/18 04:43:57;;;;;;;349.98;328.48;;;16.40;99.90;;;;;;5074903;28;20048;-60
2022/07/18 04:46:23;;;;;;;361.40;340.33;;;16.40;99.90;;;;;;5074322;28;20052;-60
2022/07/18 04:48:49;;;;;;;356.25;335.30;;;16.50;99.90;;;;;;5039682;28;20053;-61
2022/07/18 04:51:15;;;;;;;462.23;430.90;;;16.60;99.90;;;;;;5054440;28;20433;-60
2022/07/18 04:53:40;;;;;;;338.40;318.10;;;16.60;99.90;;;;;;5073224;28;20394;-61
2022/07/18 04:56:06;;;;;;;280.13;263.85;;;16.70;99.90;;;;;;5055954;28;20049;-60
2022/07/18 04:58:32;;;;;;;348.17;328.77;;;16.80;99.90;;;;;;5056675;28;20101;-60
2022/07/18 05:00:58;;;;;;;384.20;362.35;;;16.80;99.90;;;;;;5073995;28;20416;-61
2022/07/18 05:03:24;;;;;;;329.67;311.73;;;16.80;99.90;;;;;;5074499;28;20063;-60
2022/07/18 05:05:50;;;;;;;391.75;369.35;;;16.90;99.90;;;;;;5061135;28;20541;-60
2022/07/18 05:08:15;;;;;;;325.30;306.83;;;16.90;99.90;;;;;;5053918;28;20049;-60
2022/07/18 05:10:41;;;;;;;329.77;311.55;;;17.00;99.90;;;;;;5054293;28;20498;-60
2022/07/18 05:13:07;;;;;;;254.93;240.50;;;17.00;99.90;;;;;;5054151;28;20040;-60
2022/07/18 05:15:33;;;;;;;277.98;263.13;;;17.00;99.90;;;;;;5055440;28;20052;-60
2022/07/18 05:17:59;;;;;;;262.00;247.60;;;17.00;99.90;;;;;;5054118;28;20446;-60
2022/07/18 05:20:26;;;;;;;361.40;341.60;;;17.00;99.90;;;;;;5052869;28;20045;-61
2022/07/18 05:22:53;;;;;;;281.05;265.63;;;17.10;99.90;;;;;;5053394;28;20091;-61
2022/07/18 05:25:22;;;;;;;340.42;322.65;;;17.10;99.90;;;;;;5054163;28;20054;-61
2022/07/18 05:27:49;;;;;;;295.00;279.95;;;17.20;99.90;;;;;;5053082;28;20080;-60
2022/07/18 05:30:15;;;;;;;356.17;337.15;;;17.20;99.90;;;;;;5053872;28;20045;-60
2022/07/18 05:32:42;;;;;;;326.00;308.27;;;17.30;99.90;;;;;;5068434;28;20051;-60
2022/07/18 05:35:08;;;;;;;;;;;17.30;99.90;;;;;;5069859;28;20490;-60
2022/07/18 05:37:36;;;;;;;;;;;17.30;99.90;;;;;;5048492;28;19929;-60
2022/07/18 05:40:03;;;;;;;;;;;17.40;99.90;;;;;;5045682;28;19929;-60
2022/07/18 05:42:28;;;;;;;;;;;17.50;99.90;;;;;;5045411;28;19987;-59
2022/07/18 05:44:54;;;;;;;;;;;17.20;99.90;;;;;;5050168;28;20379;-60
2022/07/18 05:47:19;;;;;;;;;;;17.50;99.90;;;;;;5043904;28;20207;-60
2022/07/18 05:49:45;;;;;;;;;;;17.60;99.90;;;;;;5041282;28;20393;-60
2022/07/18 05:52:11;;;;;;;;;;;17.60;99.90;;;;;;5034158;28;19920;-60
2022/07/18 05:54:36;;;;;;;;;;;17.70;99.90;;;;;;5053445;28;20039;-61
2022/07/18 05:57:02;;;;;;;;;;;17.80;99.90;;;;;;5053089;28;20011;-61
2022/07/18 05:59:28;;;;;;;;;;;17.80;99.90;;;;;;5053699;28;19928;-60
2022/07/18 06:01:53;;;;;;;;;;;17.90;99.90;;;;;;5053794;28;19928;-60
2022/07/18 06:04:20;;;;;;;390.20;367.00;;;18.00;99.90;;;;;;5052667;28;19921;-60
2022/07/18 06:06:48;;;;;;;311.05;295.05;;;18.10;99.90;;;;;;5057194;28;20049;-60
2022/07/18 06:09:14;;;;;;;267.00;253.18;;;18.10;99.90;;;;;;5058774;28;20037;-60
2022/07/18 06:11:40;;;;;;;315.40;297.98;;;18.20;99.90;;;;;;5052031;28;20075;-61
2022/07/18 06:14:05;;;;;;;;;;;18.30;99.90;;;;;;5053569;28;20033;-60
2022/07/18 06:16:31;;;;;;;;;;;18.40;99.90;;;;;;5064014;28;19920;-61
2022/07/18 06:18:57;;;;;;;;;;;18.50;99.90;;;;;;5073520;28;20267;-60
2022/07/18 06:21:23;;;;;;;;;;;18.60;99.90;;;;;;5063171;28;19931;-60
2022/07/18 06:23:48;;;;;;;;;;;18.70;99.90;;;;;;5052773;28;20321;-60
2022/07/18 06:26:14;;;;;;;;;;;18.70;99.90;;;;;;5071739;28;19921;-61
2022/07/18 06:28:40;;;;;;;;;;;18.80;99.90;;;;;;5073455;28;19966;-61
2022/07/18 06:31:05;;;;;;;;;;;19.00;99.90;;;;;;5072728;28;19920;-61
2022/07/18 06:33:31;;;;;;;;;;;19.00;99.90;;;;;;5072528;28;19928;-61
2022/07/18 06:35:57;;;;;;;;;;;19.10;99.90;;;;;;5073001;28;19925;-61
2022/07/18 06:38:23;;;;;;;;;;;19.20;99.90;;;;;;5063680;28;19928;-61
2022/07/18 06:40:48;;;;;;;;;;;19.20;99.90;;;;;;5052886;28;19921;-61
2022/07/18 06:43:19;;;;;;;;;;;19.30;99.90;;;;;;5048080;28;19925;-61
2022/07/18 06:45:45;;;;;;;;;;;;;;;;;;5072282;28;19920;-61
2022/07/18 06:48:10;;;;;;;;;;;19.60;99.90;;;;;;5061395;28;20389;-61
2022/07/18 06:50:36;;;;;;;;;;;19.90;99.90;;;;;;5067722;28;19974;-61
2022/07/18 06:53:02;;;;;;;;;;;20.00;99.90;;;;;;5072306;28;20290;-61
2022/07/18 06:55:27;;;;;;;;;;;20.10;99.90;;;;;;5072992;28;19928;-61
2022/07/18 06:57:53;;;;;;;;;;;20.10;99.90;;;;;;5073033;28;19972;-61
2022/07/18 07:00:19;;;;;;;330.73;314.30;;;20.20;99.90;;;;;;5068930;28;19924;-60
2022/07/18 07:02:48;;;;;;;242.80;231.15;;;20.40;99.90;;;;;;5072804;28;20123;-61
2022/07/18 07:05:14;;;;;;;;;;;20.60;99.90;;;;;;5054857;28;20041;-61
2022/07/18 07:07:40;;;;;;;;;;;20.50;99.90;;;;;;5070884;28;19931;-61
2022/07/18 07:10:06;;;;;;;;;;;20.50;99.90;;;;;;5068639;28;19924;-61
2022/07/18 07:12:46;;;;;;;;;;;20.60;99.90;;;;;;5067779;28;20293;-61
2022/07/18 07:15:12;;;;;;;;;;;20.70;99.90;;;;;;5053072;28;19929;-61
2022/07/18 07:17:37;;;;;;;;;;;20.80;99.90;;;;;;5057262;28;20019;-61
2022/07/18 07:20:05;;;;;;;;;;;21.00;99.90;;;;;;5061123;28;20358;-61
2022/07/18 07:22:31;;;;;;;;;;;21.30;99.90;;;;;;5053065;28;19928;-61
2022/07/18 07:24:56;;;;;;;;;;;21.60;99.90;;;;;;5035306;28;19921;-61
2022/07/18 07:27:22;;;;;;;309.35;293.25;;;21.80;99.90;;;;;;5063350;28;20393;-61
2022/07/18 07:29:48;;;;;;;227.23;215.57;;;21.90;99.90;;;;;;5072490;28;20044;-61
2022/07/18 07:32:13;;;;;;;340.88;320.63;;;22.00;99.90;;;;;;5072421;28;20056;-61
2022/07/18 07:34:39;;;;;;;;;;;;;;;;;;5071927;28;20055;-61
2022/07/18 07:37:05;;;;;;;234.40;223.80;;;22.30;99.90;;;;;;5072229;28;19931;-61
2022/07/18 07:39:31;;;;;;;;;;;22.50;99.90;;;;;;5054117;28;20041;-61
2022/07/18 07:41:56;;;;;;;;;;;22.60;99.90;;;;;;5062348;28;19925;-61
2022/07/18 07:44:22;;;;;;;;;;;22.80;99.90;;;;;;5078894;28;19935;-61
2022/07/18 07:46:48;;;;;;;;;;;23.00;99.90;;;;;;5072013;28;20390;-61
2022/07/18 07:49:13;;;;;;;;;;;23.10;99.90;;;;;;5074798;28;19954;-61
2022/07/18 07:51:39;;;;;;;;;;;23.10;99.90;;;;;;5076275;28;19924;-61
2022/07/18 07:54:05;;;;;;;;;;;23.10;99.90;;;;;;5071786;28;20270;-61
2022/07/18 07:56:31;;;;;;;;;;;23.10;99.90;;;;;;5095567;28;20336;-61
2022/07/18 07:58:57;;;;;;;203.23;193.93;;;23.20;99.90;;;;;;5096333;28;19928;-61
2022/07/18 08:01:23;;;;;;;187.40;178.88;;;23.40;99.70;;;;;;5094675;28;20102;-61
2022/07/18 08:03:50;;;;;;;181.10;173.18;;;23.50;99.50;;;;;;5074569;28;20048;-61
2022/07/18 08:06:15;;;;;;;207.55;198.20;;;23.60;98.80;;;;;;5075871;28;20056;-61
2022/07/18 08:08:41;;;;;;;178.75;170.60;;;23.70;98.70;;;;;;5057555;28;20092;-61
2022/07/18 08:11:07;;;;;;;185.95;177.65;;;23.80;97.90;;;;;;5082613;28;20055;-61
2022/07/18 08:13:33;;;;;;;183.52;175.40;;;23.90;97.70;;;;;;5082500;28;20041;-61
2022/07/18 08:15:59;;;;;;;304.08;290.17;;;24.10;97.40;;;;;;5075546;28;20052;-61
2022/07/18 08:18:24;;;;;;;217.52;208.05;;;24.40;95.80;;;;;;5074194;28;20544;-61
2022/07/18 08:20:50;;;;;;;229.57;219.18;;;24.70;95.20;;;;;;5090815;28;20123;-61
2022/07/18 08:23:17;;;;;;;302.30;288.80;;;24.70;94.80;;;;;;5095063;28;20137;-61
2022/07/18 08:25:44;;;;;;;342.52;326.55;;;24.60;91.50;;;;;;5094963;28;20040;-61
2022/07/18 08:28:11;;;;;;;284.02;270.73;;;24.50;92.50;;;;;;5092000;28;20135;-61
2022/07/18 08:30:38;;;;;;;314.50;299.55;;;24.30;92.20;;;;;;5074619;28;20040;-61
2022/07/18 08:33:05;;;;;;;283.58;271.05;;;24.00;88.70;;;;;;5074893;28;20045;-61
2022/07/18 08:35:32;;;;;;;289.77;276.67;;;23.90;91.20;;;;;;5075249;28;20044;-61
2022/07/18 08:37:58;;;;;;;365.90;347.58;;;23.90;91.60;;;;;;5079551;28;20103;-61
2022/07/18 08:40:24;;;;;;;390.35;371.70;;;24.20;91.80;;;;;;5074616;28;20144;-61
2022/07/18 08:42:52;;;;;;;360.13;343.23;;;24.50;91.40;;;;;;5074913;28;20132;-61
2022/07/18 08:45:22;;;;;;;350.27;333.98;;;24.80;91.60;;;;;;5056628;28;20095;-61
2022/07/18 08:47:49;;;;;;;269.70;257.08;;;25.10;92.20;;;;;;5091352;28;20076;-61
2022/07/18 08:50:15;;;;;;;364.45;347.20;;;25.30;88.20;;;;;;5095237;28;20382;-61
2022/07/18 08:52:41;;;;;;;335.60;319.77;;;25.30;86.30;;;;;;5078159;28;20047;-61
2022/07/18 08:55:08;;;;;;;356.58;339.63;;;25.20;82.50;;;;;;5082582;28;20040;-61
2022/07/18 08:57:34;;;;;;;363.48;346.45;;;25.20;82.40;;;;;;5092197;28;20039;-61
2022/07/18 09:00:04;;;;;;;354.13;337.83;;;25.10;82.10;;;;;;5073961;28;20453;-61
2022/07/18 09:02:30;;;;;;;303.15;289.33;;;25.00;79.10;;;;;;5074334;28;20441;-61
2022/07/18 09:04:55;;;;;;;402.17;382.55;;;25.00;79.00;;;;;;5088622;28;20040;-61
2022/07/18 09:07:27;;;;;;;360.33;343.30;;;25.10;83.50;;;;;;5093845;28;20052;-61
2022/07/18 09:09:57;;;;;;;439.00;417.73;;;25.20;84.50;;;;;;5074481;28;20047;-61
2022/07/18 09:12:26;;;;;;;355.80;339.40;;;25.10;83.00;;;;;;5076038;28;20080;-61
2022/07/18 09:14:52;;;;;;;370.13;353.05;;;25.00;84.00;;;;;;5094522;28;20390;-61
2022/07/18 09:17:22;;;;;;;380.80;362.92;;;24.90;85.50;;;;;;5082423;28;20109;-61
2022/07/18 09:20:08;;;;;;;371.95;354.45;;;24.70;82.40;;;;;;5073361;28;20051;-61
2022/07/18 09:22:37;;;;;;;334.73;319.73;;;24.70;85.90;;;;;;5087969;28;20052;-61
2022/07/18 09:25:07;;;;;;;328.92;314.05;;;24.90;87.70;;;;;;5094379;28;20552;-61
2022/07/18 09:27:36;;;;;;;384.38;366.17;;;25.10;88.10;;;;;;5093703;28;20081;-61
2022/07/18 09:30:21;;;;;;;332.63;317.60;;;25.10;87.10;;;;;;5072319;28;20493;-61
2022/07/18 09:32:51;;;;;;;306.60;292.88;;;25.20;87.70;;;;;;5094189;28;20115;-61
2022/07/18 09:35:19;;;;;;;355.20;338.63;;;25.30;87.60;;;;;;5093650;28;20044;-61
2022/07/18 09:38:04;;;;;;;403.48;384.33;;;25.30;86.00;;;;;;5090341;28;20052;-61
2022/07/18 09:40:33;;;;;;;377.20;359.52;;;25.40;84.50;;;;;;5072443;28;20489;-61
2022/07/18 09:43:01;;;;;;;316.17;301.77;;;25.40;86.30;;;;;;5073526;28;20485;-61
2022/07/18 09:45:30;;;;;;;381.98;363.60;;;25.20;82.10;;;;;;5073866;28;20059;-61
2022/07/18 09:48:00;;;;;;;375.90;358.17;;;25.30;85.20;;;;;;5062713;28;20085;-61
2022/07/18 09:50:31;;;;;;;390.83;372.25;;;25.50;89.00;;;;;;5092977;28;20040;-61
2022/07/18 09:53:04;;;;;;;365.25;347.95;;;25.60;87.70;;;;;;5093826;28;20044;-61
2022/07/18 09:55:31;;;;;;;369.63;352.33;;;25.80;85.80;;;;;;5093308;28;20075;-61
2022/07/18 09:58:01;;;;;;;362.05;345.15;;;25.90;83.80;;;;;;5079253;28;20075;-61
2022/07/18 10:00:29;;;;;;;336.98;321.23;;;26.00;83.80;;;;;;5092954;28;20052;-61
2022/07/18 10:02:55;;;;;;;350.70;334.10;;;26.10;83.40;;;;;;5093107;28;20044;-62
2022/07/18 10:05:21;;;;;;;338.50;322.20;;;26.10;80.40;;;;;;5092912;28;20040;-61
2022/07/18 10:07:47;;;;;;;374.15;356.67;;;26.10;81.30;;;;;;5072904;28;20075;-59
2022/07/18 10:10:15;;;;;;;406.40;386.95;;;26.10;83.60;;;;;;5071217;28;20106;-59
2022/07/18 10:12:42;;;;;;;362.02;345.45;;;26.00;83.20;;;;;;5073334;28;20063;-59
2022/07/18 10:15:09;;;;;;;347.52;331.63;;;26.20;82.10;;;;;;5072897;28;20052;-59
2022/07/18 10:17:35;;;;;;;363.40;346.75;;;26.10;82.70;;;;;;5072383;28;20041;-59
2022/07/18 10:20:06;;;;;;;336.63;321.17;;;26.10;81.80;;;;;;5072817;28;20059;-59
2022/07/18 10:22:42;;;;;;;434.25;412.63;;;26.00;80.00;;;;;;5070877;28;20076;-59
2022/07/18 10:25:10;;;;;;;434.88;413.50;;;26.10;81.30;;;;;;5072384;28;20095;-59
2022/07/18 10:28:00;;;;;;;375.27;357.88;;;26.10;76.60;;;;;;5072593;28;20165;-59
2022/07/18 10:30:35;;;;;;;359.55;342.80;;;26.20;76.40;;;;;;5069418;28;20052;-59
2022/07/18 10:33:02;;;;;;;427.55;406.48;;;26.80;79.70;;;;;;5064173;28;20137;-59
2022/07/18 10:36:00;;;;;;;387.35;368.67;;;26.90;75.10;;;;;;5093293;28;20043;-59
2022/07/18 10:38:26;;;;;;;343.25;327.13;;;27.00;75.40;;;;;;5082565;28;20032;-59
2022/07/18 10:41:07;;;;;;;338.67;323.02;;;27.00;74.70;;;;;;5075571;28;20056;-59
2022/07/18 10:43:36;;;;;;;301.85;288.15;;;27.00;73.10;;;;;;5093263;28;20059;-59
2022/07/18 10:46:03;;;;;;;334.42;318.80;;;27.10;71.30;;;;;;5091967;28;20094;-59
2022/07/18 10:48:35;;;;;;;332.70;317.17;;;27.20;72.50;;;;;;5078731;28;20048;-59
2022/07/18 10:51:10;;;;;;;421.25;400.58;;;27.80;70.90;;;;;;5085836;28;20044;-59
2022/07/18 10:53:55;;;;;;;344.92;328.95;;;;;;;;;;5092417;28;20052;-59
2022/07/18 10:56:41;;;;;;;472.05;448.35;;;28.40;68.20;;;;;;5093102;28;20044;-59
2022/07/18 10:59:18;;;;;;;268.17;256.30;;;28.90;72.50;;;;;;5091022;28;20044;-59
2022/07/18 11:01:49;;;;;;;297.75;284.58;;;29.30;64.60;;;;;;5092515;28;20040;-59
2022/07/18 11:04:34;;;;;;;296.88;283.63;;;29.10;66.30;;;;;;5092594;28;20541;-59
2022/07/18 11:07:04;;;;;;;244.32;233.55;;;29.40;66.30;;;;;;5092102;28;20054;-59
2022/07/18 11:09:36;;;;;;;287.90;274.33;;;29.50;65.00;;;;;;5076019;28;20064;-59
2022/07/18 11:12:22;;;;;;;288.15;275.45;;;;;;;;;;5052317;28;20092;-59
2022/07/18 11:15:05;;;;;;;282.20;269.60;;;30.00;63.30;;;;;;5072122;28;20680;-59
2022/07/18 11:17:51;;;;;;;330.00;315.10;;;29.90;60.90;;;;;;5071689;28;20380;-59
2022/07/18 11:20:35;;;;;;;311.83;298.02;;;30.20;58.90;;;;;;5047373;28;20070;-59
2022/07/18 11:23:04;;;;;;;234.73;224.70;;;30.60;63.00;;;;;;5075490;28;20049;-59
2022/07/18 11:25:30;;;;;;;246.75;236.05;;;31.20;61.70;;;;;;5076013;28;20079;-59
2022/07/18 11:27:57;;;;;;;291.33;278.50;;;31.40;59.00;;;;;;5057106;28;20414;-59
2022/07/18 11:30:24;;;;;;;269.50;257.42;;;32.10;58.50;;;;;;5058138;28;20084;-59
2022/07/18 11:32:50;;;;;;;246.85;236.38;;;32.70;57.40;;;;;;5078555;28;20387;-59
2022/07/18 11:35:25;;;;;;;264.83;253.43;;;33.00;54.50;;;;;;5081088;28;20496;-59
2022/07/18 11:37:52;;;;;;;235.90;225.75;;;32.80;56.70;;;;;;5075368;28;20490;-59
2022/07/18 11:40:18;;;;;;;234.85;224.57;;;33.10;56.70;;;;;;5059148;28;20376;-59
2022/07/18 11:42:44;;;;;;;233.75;223.68;;;32.90;51.50;;;;;;5066168;28;20064;-59
2022/07/18 11:45:12;;;;;;;259.70;248.50;;;32.20;51.10;;;;;;5075384;28;20060;-59
2022/07/18 11:47:48;;;;;;;222.05;212.32;;;31.70;53.20;;;;;;5074202;28;20048;-59
2022/07/18 11:50:14;;;;;;;248.73;238.18;;;31.60;54.50;;;;;;5073314;28;20041;-59
2022/07/18 11:52:41;;;;;;;269.25;257.65;;;31.70;53.30;;;;;;5073811;28;20443;-59
2022/07/18 11:55:07;;;;;;;247.93;237.20;;;31.80;53.30;;;;;;5074509;28;20040;-59
2022/07/18 11:57:33;;;;;;;229.18;219.48;;;31.70;52.30;;;;;;5057589;28;20394;-59
2022/07/18 12:00:13;;;;;;;310.58;296.55;;;32.00;51.90;;;;;;5067544;28;20040;-59
2022/07/18 12:03:05;;;;;;;287.70;274.80;;;31.80;52.00;;;;;;5054949;28;20053;-59
2022/07/18 12:05:32;;;;;;;;;;;31.70;51.50;;;;;;5056171;28;20194;-59
2022/07/18 12:07:57;;;;;;;293.17;280.15;;;31.80;54.30;;;;;;5058373;28;19974;-59
2022/07/18 12:10:24;;;;;;;280.17;267.67;;;32.00;54.20;;;;;;5074365;28;20044;-59
2022/07/18 12:12:49;;;;;;;244.00;233.50;;;31.80;51.70;;;;;;5064288;28;20052;-59
2022/07/18 12:15:15;;;;;;;215.57;206.48;;;31.50;51.90;;;;;;5074247;28;20390;-59
2022/07/18 12:17:47;;;;;;;285.08;272.23;;;31.30;49.20;;;;;;5075766;28;20537;-59
2022/07/18 12:20:19;;;;;;;283.10;270.48;;;31.40;52.30;;;;;;5078619;28;20131;-58
2022/07/18 12:23:08;;;;;;;284.45;272.08;;;32.20;53.00;;;;;;5074174;28;20048;-59
2022/07/18 12:25:38;;;;;;;274.40;262.48;;;32.70;53.70;;;;;;5072794;28;20493;-59
2022/07/18 12:28:13;;;;;;;277.92;265.83;;;32.70;49.80;;;;;;5077099;28;20103;-59
2022/07/18 12:30:39;;;;;;;246.50;235.70;;;32.80;49.50;;;;;;5073058;28;20040;-59
2022/07/18 12:33:09;;;;;;;294.08;280.98;;;32.70;48.70;;;;;;5073289;28;20044;-59